Fresno Yosemite International Airport

KFAT · California, United States

METAR history KFAT · Fresno Yosemite International Airport

Below you see METARs of the last few days. Select a year to browse through older METARs, from the year 2007 onwards.

February 26, 2024

Time Code Weather Temp. Visibility Ceiling Wind METAR/SPECI
01:53
V
12 °C 10 mi 23,000 ft 360° 360° 0 kt METAR KFAT 260953Z 00000KT 10SM FEW150 SCT180 BKN230 12/07 A3005 RMK AO2 SLP173 T01220072
00:53
V
12 °C 10 mi - 340° 340° 4 kt METAR KFAT 260853Z 34004KT 10SM FEW120 FEW150 SCT200 12/08 A3005 RMK AO2 SLP173 T01220078 53004

February 25, 2024

Time Code Weather Temp. Visibility Ceiling Wind METAR/SPECI
23:53
V
13 °C 10 mi - 320° 320° 5 kt METAR KFAT 260753Z 32005KT 10SM CLR 13/08 A3004 RMK AO2 SLP170 T01330078 402280083
22:53
V
13 °C 10 mi - 280° 280° 4 kt METAR KFAT 260653Z 28004KT 10SM SCT200 13/09 A3004 RMK AO2 SLP172 T01330089
21:53
V
14 °C 10 mi - 360° 360° 0 kt METAR KFAT 260553Z 00000KT 10SM FEW200 14/08 A3004 RMK AO2 SLP169 T01390083 10228 20139 51013
20:53
V
17 °C 10 mi - 360° 360° 3 kt METAR KFAT 260453Z 36003KT 10SM SCT200 17/09 A3003 RMK AO2 SLP166 T01670089
19:53
V
18 °C 10 mi 20,000 ft 360° 360° 0 kt METAR KFAT 260353Z 00000KT 10SM BKN200 18/07 A3001 RMK AO2 SLP162 T01780072
18:53
V
19 °C 10 mi 20,000 ft 360° 360° 0 kt METAR KFAT 260253Z 00000KT 10SM BKN200 19/07 A3000 RMK AO2 SLP156 T01940067 53006
17:53
V
20 °C 10 mi - 280° 280° 4 kt METAR KFAT 260153Z 28004KT 10SM FEW080 FEW150 FEW200 20/07 A2998 RMK AO2 SLP151 T02000067
16:53
V
22 °C 10 mi - 280° 280° 4 kt METAR KFAT 260053Z 28004KT 10SM FEW080 FEW150 SCT200 22/07 A2997 RMK AO2 SLP147 T02220067
15:53
V
22 °C 10 mi - 360° 360° 0 kt METAR KFAT 252353Z 00000KT 10SM FEW080 FEW150 SCT200 22/06 A2998 RMK AO2 SLP150 T02220061 10228 20156 56019
14:53
V
22 °C 10 mi - 140° 140° 5 kt METAR KFAT 252253Z 14005KT 10SM FEW080 FEW120 SCT150 SCT200 22/07 A2999 RMK AO2 SLP154 T02220067
13:53
V
22 °C 10 mi - 170° 170° 4 kt METAR KFAT 252153Z 17004KT 10SM FEW080 FEW120 SCT200 22/08 A3000 RMK AO2 SLP158 T02170078
12:53
V
21 °C 10 mi - 220° 220° 5 kt METAR KFAT 252053Z 22005KT 10SM FEW120 FEW200 21/09 A3003 RMK AO2 SLP169 T02060094 58019
11:53
V
20 °C 10 mi - 210° 210° 5 kt METAR KFAT 251953Z 21005KT 10SM FEW080 FEW200 20/10 A3006 RMK AO2 SLP178 T02000100
10:53
V
18 °C 10 mi - 120° 120° 3 kt METAR KFAT 251853Z 12003KT 10SM FEW200 18/09 A3009 RMK AO2 SLP187 T01780094
09:53
V
16 °C 10 mi - 140° 140° 5 kt METAR KFAT 251753Z 14005KT 10SM FEW070 FEW200 16/09 A3009 RMK AO2 SLP188 T01560089 10156 20083 51018
08:53
V
14 °C 10 mi - 360° 360° 0 kt METAR KFAT 251653Z 00000KT 10SM FEW020 FEW030 SCT200 14/07 A3009 RMK AO2 SLP186 T01390072
07:53
V
11 °C 10 mi - 360° 360° 0 kt METAR KFAT 251553Z 00000KT 10SM FEW020 FEW200 11/07 A3007 RMK AO2 SLP180 T01060067
06:53
V
8 °C 10 mi - 360° 360° 0 kt METAR KFAT 251453Z 00000KT 10SM CLR 08/06 A3004 RMK AO2 SLP170 T00830061 53004
05:53
V
8 °C 10 mi - 360° 360° 0 kt METAR KFAT 251353Z 00000KT 10SM CLR 08/06 A3003 RMK AO2 SLP167 T00830056
04:53
V
9 °C 10 mi - 360° 360° 0 kt METAR KFAT 251253Z 00000KT 10SM CLR 09/07 A3003 RMK AO2 SLP166 T00890067
03:53
V
9 °C 10 mi - 360° 360° 0 kt METAR KFAT 251153Z 00000KT 10SM CLR 09/07 A3002 RMK AO2 SLP165 T00940067 10139 20089 55004
02:53
V
9 °C 10 mi - 060° 060° 3 kt METAR KFAT 251053Z 06003KT 10SM CLR 09/07 A3002 RMK AO2 SLP165 T00940072
01:53
V
10 °C 10 mi - 360° 360° 0 kt METAR KFAT 250953Z 00000KT 10SM CLR 10/08 A3003 RMK AO2 SLP169 T01000078
00:53
V
11 °C 10 mi - 360° 360° 0 kt METAR KFAT 250853Z 00000KT 10SM CLR 11/08 A3004 RMK AO2 SLP169 T01060083 56004

February 24, 2024

Time Code Weather Temp. Visibility Ceiling Wind METAR/SPECI
23:53
V
11 °C 10 mi - 360° 360° 0 kt METAR KFAT 250753Z 00000KT 10SM CLR 11/08 A3004 RMK AO2 SLP171 T01110083 402170072
22:53
V
12 °C 10 mi - 360° 360° 0 kt METAR KFAT 250653Z 00000KT 10SM FEW200 12/08 A3004 RMK AO2 SLP172 T01220083
21:53
V
14 °C 10 mi - 360° 360° 0 kt METAR KFAT 250553Z 00000KT 10SM FEW200 14/09 A3005 RMK AO2 SLP174 T01390089 10217 20133 51008
20:53
V
14 °C 10 mi - 360° 360° 0 kt METAR KFAT 250453Z 00000KT 10SM FEW200 14/09 A3004 RMK AO2 SLP173 T01440089
19:53
V
16 °C 10 mi - 360° 360° 0 kt METAR KFAT 250353Z 00000KT 10SM FEW200 16/09 A3003 RMK AO2 SLP169 T01560089
18:53
V
18 °C 10 mi - 360° 360° 5 kt METAR KFAT 250253Z 36005KT 10SM FEW150 FEW200 18/09 A3002 RMK AO2 SLP165 T01780089 53003
17:53
V
19 °C 10 mi - 350° 350° 4 kt METAR KFAT 250153Z 35004KT 10SM FEW150 19/08 A3002 RMK AO2 SLP163 T01890083
16:53
V
21 °C 10 mi - 300° 300° 5 kt METAR KFAT 250053Z 30005KT 10SM SCT150 SCT200 21/08 A3001 RMK AO2 SLP160 T02110078
15:53
V
22 °C 10 mi 20,000 ft 310° 310° 5 kt METAR KFAT 242353Z 31005KT 10SM FEW120 BKN200 BKN250 22/08 A3001 RMK AO2 SLP162 T02170078 10217 20139 56016
14:53
V
21 °C 10 mi 17,000 ft 360° 360° 0 kt METAR KFAT 242253Z 00000KT 10SM FEW120 BKN170 21/07 A3002 RMK AO2 SLP164 T02060067
13:53
V
20 °C 10 mi 20,000 ft 360° 360° 0 kt METAR KFAT 242153Z 00000KT 10SM FEW150 BKN200 20/08 A3004 RMK AO2 SLP170 T02000078
12:53
V
20 °C 10 mi 20,000 ft 360° 360° 0 kt METAR KFAT 242053Z 00000KT 10SM FEW150 BKN200 20/08 A3006 RMK AO2 SLP178 T02000078 58009
11:53
V
18 °C 10 mi - 360° 360° 0 kt METAR KFAT 241953Z 00000KT 10SM FEW150 SCT200 18/08 A3008 RMK AO2 SLP184 T01830078
10:53
V
16 °C 10 mi - 360° 360° 0 kt METAR KFAT 241853Z 00000KT 10SM SCT200 16/08 A3010 RMK AO2 SLP190 T01610083
09:53
V
14 °C 10 mi - 220° 220° 3 kt METAR KFAT 241753Z 22003KT 10SM FEW150 SCT200 14/09 A3009 RMK AO2 SLP187 T01390089 10139 20072 50003
08:53
V
12 °C 9 mi - 130° 130° 3 kt METAR KFAT 241653Z 13003KT 9SM FEW150 SCT200 12/08 A3009 RMK AO2 SLP188 T01170083
07:53
V
9 °C 10 mi - 360° 360° 0 kt METAR KFAT 241553Z 00000KT 10SM FEW120 SCT200 09/07 A3010 RMK AO2 SLP192 T00890067
06:53
V
8 °C 9 mi 15,000 ft 040° 040° 3 kt METAR KFAT 241453Z 04003KT 9SM SCT120 BKN150 BKN200 08/06 A3008 RMK AO2 SLP184 T00780061 53002
05:53
V
8 °C 10 mi - 360° 360° 0 kt METAR KFAT 241353Z 00000KT 10SM SCT120 SCT150 08/06 A3007 RMK AO2 SLP183 T00830061
04:53
V
8 °C 10 mi - 050° 050° 4 kt METAR KFAT 241253Z 05004KT 10SM SCT140 SCT180 08/06 A3006 RMK AO2 SLP179 T00830061
03:53
V
9 °C 10 mi 15,000 ft 030° 030° 3 kt METAR KFAT 241153Z 03003KT 10SM BKN150 BKN180 09/07 A3007 RMK AO2 SLP182 T00890067 10122 20083 56009
02:53
V
9 °C 10 mi 15,000 ft 360° 360° 0 kt METAR KFAT 241053Z 00000KT 10SM BKN150 BKN190 09/07 A3008 RMK AO2 SLP185 T00890067
01:53
V
9 °C 10 mi 17,000 ft 360° 360° 0 kt METAR KFAT 240953Z 00000KT 10SM SCT130 BKN170 09/07 A3009 RMK AO2 SLP186 T00940067
00:53
V
10 °C 10 mi 18,000 ft 080° 080° 3 kt METAR KFAT 240853Z 08003KT 10SM SCT150 BKN180 10/07 A3010 RMK AO2 SLP192 T01000072 58000

February 23, 2024

Time Code Weather Temp. Visibility Ceiling Wind METAR/SPECI
23:53
V
11 °C 10 mi 15,000 ft 360° 360° 0 kt METAR KFAT 240753Z 00000KT 10SM BKN150 BKN200 11/08 A3011 RMK AO2 SLP196 T01060078 401940067
22:53
V
12 °C 10 mi 20,000 ft 360° 360° 0 kt METAR KFAT 240653Z 00000KT 10SM FEW050 SCT130 BKN200 12/08 A3011 RMK AO2 SLP195 T01170078
21:53
V
12 °C 10 mi 19,000 ft 330° 330° 4 kt METAR KFAT 240553Z 33004KT 10SM SCT130 BKN190 12/08 A3010 RMK AO2 SLP192 T01220078 10189 20122 53007